Time;durP1;ratioP1;P1;durP2;ratioP2;P2;SDS_P1;SDS_P2;PMS_P1;PMS_P2;Temp;Humidity;BMP_temperature;BMP_pressure;BME280_temperature;BME280_humidity;BME280_pressure;Samples;Min_cycle;Max_cycle;Signal;HPM_P1;HPM_P2
2022/12/22 03:25:54;;;;;;;325.60;64.87;;;;;;;;;;5094575;28;20351;-58
2022/12/22 03:28:24;;;;;;;315.60;70.80;;;;;;;;;;5094529;28;20269;-56
2022/12/22 03:30:54;;;;;;;291.50;61.23;;;;;;;;;;5094129;28;20213;-57
2022/12/22 03:33:21;;;;;;;288.60;61.67;;;;;;;;;;5093913;28;20222;-58
2022/12/22 03:35:48;;;;;;;343.03;64.77;;;;;;;;;;5094662;28;20199;-56
2022/12/22 03:38:15;;;;;;;314.90;62.83;;;;;;;;;;5094361;28;20207;-58
2022/12/22 03:40:43;;;;;;;339.40;63.67;;;;;;;;;;5094306;28;20203;-58
2022/12/22 03:49:08;;;;;;;309.17;63.40;;;;;;;;;;5094321;28;20210;-58
2022/12/22 03:51:32;;;;;;;361.43;64.13;;;;;;;;;;5098186;28;20202;-59
2022/12/22 03:53:59;;;;;;;308.63;68.93;;;;;;;;;;5097952;28;20226;-60
2022/12/22 03:56:27;;;;;;;347.67;66.40;;;;;;;;;;5098297;28;20205;-60
2022/12/22 03:58:54;;;;;;;329.77;67.87;;;;;;;;;;5098027;28;20619;-60
2022/12/22 04:01:21;;;;;;;339.60;68.20;;;;;;;;;;5098286;28;20198;-59
2022/12/22 04:03:49;;;;;;;380.17;74.00;;;;;;;;;;5098175;28;20206;-59
2022/12/22 04:06:17;;;;;;;423.30;81.30;;;;;;;;;;5098123;28;20202;-60
2022/12/22 04:08:44;;;;;;;435.80;77.03;;;;;;;;;;5098192;28;20198;-61
2022/12/22 04:13:59;;;;;;;422.33;81.27;;;;;;;;;;5097796;28;20226;-59
2022/12/22 04:16:26;;;;;;;467.03;87.23;;;;;;;;;;5097744;28;20207;-60
2022/12/22 04:18:53;;;;;;;469.20;84.10;;;;;;;;;;5097646;28;20290;-59
2022/12/22 04:21:21;;;;;;;476.87;85.07;;;;;;;;;;5097439;28;20238;-60
2022/12/22 04:23:51;;;;;;;480.73;84.17;;;;;;;;;;5097517;28;20206;-59
2022/12/22 04:26:20;;;;;;;471.03;84.07;;;;;;;;;;5097487;28;20210;-59
2022/12/22 04:28:48;;;;;;;497.57;87.70;;;;;;;;;;5097534;28;20290;-59
2022/12/22 04:31:15;;;;;;;525.40;89.07;;;;;;;;;;5091066;28;20208;-59
2022/12/22 04:33:43;;;;;;;556.60;88.33;;;;;;;;;;5086410;28;20223;-59
2022/12/22 04:36:10;;;;;;;517.27;82.70;;;;;;;;;;5083815;28;20203;-59
2022/12/22 04:38:37;;;;;;;570.13;85.40;;;;;;;;;;5088789;28;20206;-61
2022/12/22 04:41:05;;;;;;;569.13;88.07;;;;;;;;;;5085421;28;20667;-59
2022/12/22 04:43:32;;;;;;;548.73;86.10;;;;;;;;;;5081221;28;20279;-59
2022/12/22 04:46:00;;;;;;;494.83;82.17;;;;;;;;;;5087385;28;20195;-59
2022/12/22 04:48:28;;;;;;;484.27;83.07;;;;;;;;;;5084223;28;20213;-60
2022/12/22 04:50:57;;;;;;;510.03;79.70;;;;;;;;;;5080991;28;20211;-59
2022/12/22 04:53:26;;;;;;;535.07;83.63;;;;;;;;;;5090860;28;20231;-59
2022/12/22 04:56:01;;;;;;;545.57;81.87;;;;;;;;;;5088112;28;20256;-59
2022/12/22 04:58:30;;;;;;;510.47;80.80;;;;;;;;;;5096365;28;20183;-60
2022/12/22 05:00:57;;;;;;;638.03;145.17;;;;;;;;;;5082870;28;20698;-60
2022/12/22 05:03:24;;;;;;;555.40;106.37;;;;;;;;;;5087586;28;20226;-60
2022/12/22 05:05:52;;;;;;;530.40;95.43;;;;;;;;;;5094797;28;20697;-60
2022/12/22 05:08:19;;;;;;;527.30;90.80;;;;;;;;;;5095933;28;20234;-59
2022/12/22 05:10:46;;;;;;;518.53;98.93;;;;;;;;;;5092421;28;20245;-62
2022/12/22 05:13:13;;;;;;;547.57;110.83;;;;;;;;;;5093445;28;20234;-59
2022/12/22 05:15:40;;;;;;;574.93;117.40;;;;;;;;;;5088513;28;20226;-60
2022/12/22 05:18:07;;;;;;;550.67;108.83;;;;;;;;;;5095662;28;20252;-59
2022/12/22 05:20:35;;;;;;;567.00;109.23;;;;;;;;;;5095529;28;20544;-60
2022/12/22 05:23:02;;;;;;;549.00;95.93;;;;;;;;;;5095367;28;20219;-59
2022/12/22 05:25:29;;;;;;;544.23;93.83;;;;;;;;;;5095613;28;20705;-60
2022/12/22 05:28:01;;;;;;;576.67;100.20;;;;;;;;;;5095541;28;20226;-60
2022/12/22 05:30:28;;;;;;;557.63;97.87;;;;;;;;;;5095237;28;20230;-59
2022/12/22 05:32:55;;;;;;;540.50;93.20;;;;;;;;;;5095168;28;20265;-59
2022/12/22 05:35:22;;;;;;;557.10;89.47;;;;;;;;;;5095682;28;20307;-58
2022/12/22 05:37:49;;;;;;;529.87;88.20;;;;;;;;;;5094894;28;20223;-54
2022/12/22 05:40:16;;;;;;;560.60;88.77;;;;;;;;;;5095158;28;20526;-60
2022/12/22 05:42:43;;;;;;;506.57;84.63;;;;;;;;;;5094109;28;20218;-59
2022/12/22 05:45:16;;;;;;;512.37;83.27;;;;;;;;;;5094106;28;20610;-55
2022/12/22 05:47:46;;;;;;;520.33;82.67;;;;;;;;;;5094698;28;20283;-59
2022/12/22 05:50:16;;;;;;;511.43;84.57;;;;;;;;;;5095268;28;20280;-59
2022/12/22 05:52:44;;;;;;;551.90;86.43;;;;;;;;;;5094828;28;20222;-58
2022/12/22 05:55:12;;;;;;;545.20;86.23;;;;;;;;;;5094490;28;20324;-60
2022/12/22 05:57:39;;;;;;;557.50;86.40;;;;;;;;;;5093248;28;20611;-63
2022/12/22 06:00:09;;;;;;;568.47;83.20;;;;;;;;;;5092886;28;20686;-60
2022/12/22 06:02:40;;;;;;;530.43;80.70;;;;;;;;;;5093175;28;20256;-55
2022/12/22 06:05:09;;;;;;;552.73;81.70;;;;;;;;;;5092956;28;20233;-60
2022/12/22 06:07:36;;;;;;;560.20;82.00;;;;;;;;;;5092837;28;20254;-60
2022/12/22 06:10:05;;;;;;;516.37;81.67;;;;;;;;;;5093096;27;20226;-60
2022/12/22 06:12:39;;;;;;;532.17;79.67;;;;;;;;;;5093070;28;20290;-58
2022/12/22 06:15:08;;;;;;;549.30;80.07;;;;;;;;;;5093910;28;20234;-59
2022/12/22 06:17:35;;;;;;;542.00;80.40;;;;;;;;;;5093442;28;20687;-60
2022/12/22 06:20:11;;;;;;;532.73;79.60;;;;;;;;;;5094581;28;20228;-60
2022/12/22 06:22:38;;;;;;;520.50;96.07;;;;;;;;;;5094101;28;20639;-60
2022/12/22 06:25:06;;;;;;;536.23;79.03;;;;;;;;;;5095027;28;20206;-61
2022/12/22 06:27:39;;;;;;;542.23;77.23;;;;;;;;;;5094738;28;20198;-59
2022/12/22 06:30:07;;;;;;;528.60;80.43;;;;;;;;;;5094954;28;20272;-60
2022/12/22 06:32:38;;;;;;;529.73;80.07;;;;;;;;;;5094049;28;20214;-60
2022/12/22 06:35:07;;;;;;;511.90;78.27;;;;;;;;;;5092951;28;20237;-61
2022/12/22 06:37:34;;;;;;;525.40;79.47;;;;;;;;;;5093014;28;20268;-60
2022/12/22 06:40:01;;;;;;;537.30;82.13;;;;;;;;;;5094688;28;20210;-59
2022/12/22 06:45:15;;;;;;;581.00;82.97;;;;;;;;;;5094733;28;20256;-60
2022/12/22 06:47:42;;;;;;;547.80;81.23;;;;;;;;;;5093709;28;20272;-59
2022/12/22 06:50:10;;;;;;;521.13;84.67;;;;;;;;;;5094375;28;20627;-60
2022/12/22 06:52:37;;;;;;;537.83;87.47;;;;;;;;;;5094085;28;20587;-60
2022/12/22 06:55:04;;;;;;;511.33;83.43;;;;;;;;;;5094380;28;20667;-59
2022/12/22 06:57:31;;;;;;;556.13;90.30;;;;;;;;;;5093225;28;20321;-60
2022/12/22 06:59:58;;;;;;;513.60;84.60;;;;;;;;;;5093533;28;20198;-61
2022/12/22 07:02:25;;;;;;;555.50;89.47;;;;;;;;;;5094193;28;20310;-60
2022/12/22 07:04:53;;;;;;;505.33;79.43;;;;;;;;;;5094171;28;20214;-59
2022/12/22 07:07:20;;;;;;;547.37;88.13;;;;;;;;;;5093296;28;20213;-59
2022/12/22 07:09:47;;;;;;;542.90;87.20;;;;;;;;;;5093438;28;20304;-60
2022/12/22 07:12:14;;;;;;;576.17;117.83;;;;;;;;;;5093290;28;20211;-62
2022/12/22 07:14:42;;;;;;;643.80;118.40;;;;;;;;;;5094261;28;20219;-60
2022/12/22 07:17:09;;;;;;;572.97;98.37;;;;;;;;;;5094345;28;20211;-60
2022/12/22 07:19:36;;;;;;;547.00;88.37;;;;;;;;;;5093909;28;20643;-61
2022/12/22 07:22:03;;;;;;;573.13;87.67;;;;;;;;;;5093282;28;20199;-60
2022/12/22 07:24:30;;;;;;;572.33;93.80;;;;;;;;;;5093462;28;20281;-59
2022/12/22 07:26:58;;;;;;;533.30;89.93;;;;;;;;;;5093322;28;20213;-60
2022/12/22 07:29:25;;;;;;;532.87;85.67;;;;;;;;;;5093113;28;20244;-59
2022/12/22 07:31:52;;;;;;;525.03;92.97;;;;;;;;;;5093646;28;20586;-59
2022/12/22 07:34:20;;;;;;;534.00;90.03;;;;;;;;;;5093435;28;20222;-60
2022/12/22 07:36:47;;;;;;;527.73;90.40;;;;;;;;;;5093844;28;20206;-60
2022/12/22 07:39:14;;;;;;;492.57;88.13;;;;;;;;;;5093570;28;20218;-61
2022/12/22 07:44:27;;;;;;;498.20;85.23;;;;;;;;;;5093391;28;20492;-59
2022/12/22 07:46:54;;;;;;;478.00;85.57;;;;;;;;;;5093999;28;20203;-61
2022/12/22 07:52:07;;;;;;;483.87;84.70;;;;;;;;;;5094114;28;20202;-61
2022/12/22 07:54:34;;;;;;;453.27;78.70;;;;;;;;;;5093716;28;20241;-60
2022/12/22 07:57:07;;;;;;;464.30;83.57;;;;;;;;;;5093971;28;20203;-59
2022/12/22 07:59:35;;;;;;;487.77;86.23;;;;;;;;;;5093619;28;20203;-60
2022/12/22 08:02:02;;;;;;;465.47;84.63;;;;;;;;;;5093791;28;20260;-59
2022/12/22 08:04:29;;;;;;;463.20;81.90;;;;;;;;;;5093562;28;20715;-59
2022/12/22 08:06:57;;;;;;;498.03;85.13;;;;;;;;;;5093132;28;20210;-60
2022/12/22 08:09:24;;;;;;;479.40;85.17;;;;;;;;;;5093210;28;20216;-59
2022/12/22 08:11:51;;;;;;;505.13;88.47;;;;;;;;;;5093693;28;20631;-60
2022/12/22 08:14:18;;;;;;;492.03;86.13;;;;;;;;;;5092696;28;20186;-59
2022/12/22 08:16:45;;;;;;;504.23;88.00;;;;;;;;;;5093403;28;20223;-60
2022/12/22 08:19:13;;;;;;;504.40;88.77;;;;;;;;;;5093630;28;20206;-60
2022/12/22 08:21:40;;;;;;;511.10;89.83;;;;;;;;;;5092842;28;20703;-60
2022/12/22 08:24:16;;;;;;;498.00;87.60;;;;;;;;;;5093315;28;20693;-60
2022/12/22 08:26:45;;;;;;;514.83;92.87;;;;;;;;;;5093174;28;20264;-60
2022/12/22 08:29:13;;;;;;;522.33;92.60;;;;;;;;;;5092568;28;20199;-59
2022/12/22 08:31:40;;;;;;;518.57;95.43;;;;;;;;;;5093568;28;20241;-60
2022/12/22 08:34:09;;;;;;;560.80;115.87;;;;;;;;;;5093341;28;20204;-59
2022/12/22 08:36:40;;;;;;;534.50;112.60;;;;;;;;;;5096658;28;20234;-59
2022/12/22 08:39:07;;;;;;;543.47;113.87;;;;;;;;;;5097243;28;20228;-61
2022/12/22 08:41:49;;;;;;;519.63;109.03;;;;;;;;;;5096443;28;20218;-62
2022/12/22 08:44:19;;;;;;;546.10;133.83;;;;;;;;;;5095958;28;20198;-60
2022/12/22 08:46:46;;;;;;;535.00;140.77;;;;;;;;;;5096052;28;20213;-62
2022/12/22 08:49:14;;;;;;;560.43;168.53;;;;;;;;;;5096585;28;20198;-59
2022/12/22 08:51:41;;;;;;;594.17;189.37;;;;;;;;;;5096685;28;20499;-62
2022/12/22 08:54:08;;;;;;;581.37;169.63;;;;;;;;;;5096452;28;20210;-60
2022/12/22 08:56:36;;;;;;;573.67;157.67;;;;;;;;;;5096574;28;20210;-59
2022/12/22 08:59:04;;;;;;;587.60;167.13;;;;;;;;;;5096788;28;20205;-61
2022/12/22 09:01:32;;;;;;;569.13;153.97;;;;;;;;;;5096603;28;20206;-59
2022/12/22 09:04:00;;;;;;;544.70;131.80;;;;;;;;;;5096903;28;20207;-60
2022/12/22 09:06:27;;;;;;;556.37;145.27;;;;;;;;;;5096596;28;20650;-59
2022/12/22 09:09:04;;;;;;;585.13;158.40;;;;;;;;;;5096716;28;20256;-60
2022/12/22 09:11:32;;;;;;;436.70;97.40;;;;;;;;;;5096838;28;20213;-60
2022/12/22 09:14:00;;;;;;;424.77;99.70;;;;;;;;;;5096296;28;20268;-61
2022/12/22 09:16:29;;;;;;;445.57;96.93;;;;;;;;;;5096230;28;20235;-61
2022/12/22 09:18:56;;;;;;;459.33;104.87;;;;;;;;;;5095798;28;20207;-58
2022/12/22 09:21:24;;;;;;;440.93;96.47;;;;;;;;;;5096550;28;20296;-58
2022/12/22 09:23:51;;;;;;;462.80;100.93;;;;;;;;;;5095696;28;20229;-59
2022/12/22 09:26:20;;;;;;;458.17;104.03;;;;;;;;;;5096290;28;20293;-58
2022/12/22 09:28:47;;;;;;;500.60;117.50;;;;;;;;;;5096347;28;20233;-59
2022/12/22 09:31:18;;;;;;;544.83;119.03;;;;;;;;;;5096225;28;20214;-60
2022/12/22 09:33:46;;;;;;;490.20;108.27;;;;;;;;;;5096115;28;20206;-57
2022/12/22 09:36:16;;;;;;;462.17;98.77;;;;;;;;;;5096404;28;20283;-59
2022/12/22 09:38:44;;;;;;;425.03;97.23;;;;;;;;;;5095289;28;20638;-59
2022/12/22 09:41:21;;;;;;;448.20;115.77;;;;;;;;;;5095026;28;20203;-61
2022/12/22 09:43:48;;;;;;;429.97;106.50;;;;;;;;;;5095141;28;20190;-60
2022/12/22 09:46:28;;;;;;;403.97;93.90;;;;;;;;;;5095852;28;20648;-60
2022/12/22 09:48:56;;;;;;;417.87;95.53;;;;;;;;;;5095205;28;20210;-59
2022/12/22 09:51:23;;;;;;;404.30;92.50;;;;;;;;;;5095831;28;20285;-60
2022/12/22 09:53:57;;;;;;;406.67;95.77;;;;;;;;;;5095903;28;20620;-59
2022/12/22 09:56:25;;;;;;;394.23;92.30;;;;;;;;;;5095440;28;20227;-61
2022/12/22 09:58:52;;;;;;;371.67;87.00;;;;;;;;;;5094099;28;20206;-60
2022/12/22 10:02:02;;;;;;;379.97;98.63;;;;;;;;;;5094077;28;20211;-59
2022/12/22 10:04:53;;;;;;;354.73;101.23;;;;;;;;;;5095549;28;20195;-59
2022/12/22 10:07:37;;;;;;;404.20;125.20;;;;;;;;;;5095832;28;20213;-59
2022/12/22 10:10:26;;;;;;;447.27;144.33;;;;;;;;;;5095574;28;20534;-61
2022/12/22 10:12:55;;;;;;;456.87;151.33;;;;;;;;;;5095292;28;20294;-59
2022/12/22 10:15:23;;;;;;;415.80;126.10;;;;;;;;;;5095289;28;20567;-59
2022/12/22 10:17:52;;;;;;;450.00;129.37;;;;;;;;;;5095682;28;20260;-60
2022/12/22 10:20:25;;;;;;;434.00;129.93;;;;;;;;;;5094028;28;20563;-59
2022/12/22 10:22:59;;;;;;;395.97;114.30;;;;;;;;;;5095190;28;20217;-60
2022/12/22 10:25:34;;;;;;;340.53;94.47;;;;;;;;;;5094245;28;20586;-59
2022/12/22 10:28:25;;;;;;;332.30;93.30;;;;;;;;;;5095270;28;20241;-59
2022/12/22 10:31:11;;;;;;;303.30;85.80;;;;;;;;;;5092674;28;20199;-61
2022/12/22 10:33:38;;;;;;;296.00;80.67;;;;;;;;;;5093110;28;20617;-61
2022/12/22 10:36:16;;;;;;;309.73;82.30;;;;;;;;;;5089739;28;20234;-60
2022/12/22 10:38:53;;;;;;;292.17;77.03;;;;;;;;;;5075785;28;20674;-64
2022/12/22 10:41:22;;;;;;;320.97;84.03;;;;;;;;;;5092725;28;20229;-60
2022/12/22 10:43:51;;;;;;;292.07;93.43;;;;;;;;;;5090901;28;20229;-61
2022/12/22 10:46:29;;;;;;;293.17;78.17;;;;;;;;;;5090323;28;20219;-62
2022/12/22 10:49:18;;;;;;;277.70;73.77;;;;;;;;;;5091693;28;20214;-61
2022/12/22 10:51:52;;;;;;;269.83;75.43;;;;;;;;;;5092007;28;20218;-61
2022/12/22 10:54:30;;;;;;;264.50;78.20;;;;;;;;;;5090098;28;20219;-62
2022/12/22 10:56:59;;;;;;;300.73;85.97;;;;;;;;;;5092157;28;20650;-61
2022/12/22 10:59:26;;;;;;;281.77;78.87;;;;;;;;;;5091426;28;20251;-63
2022/12/22 11:02:16;;;;;;;296.90;89.20;;;;;;;;;;5092378;28;20686;-62
2022/12/22 11:04:44;;;;;;;313.97;99.43;;;;;;;;;;5090600;28;20211;-63
2022/12/22 11:07:12;;;;;;;335.00;102.60;;;;;;;;;;5091326;28;20528;-60
2022/12/22 11:09:39;;;;;;;301.77;98.60;;;;;;;;;;5091312;28;20226;-61
2022/12/22 11:12:36;;;;;;;260.07;73.83;;;;;;;;;;5091504;28;20683;-62
2022/12/22 11:15:19;;;;;;;259.83;70.80;;;;;;;;;;5090533;28;20218;-59
2022/12/22 11:18:17;;;;;;;253.07;71.13;;;;;;;;;;5091486;28;20287;-59
2022/12/22 11:21:09;;;;;;;272.47;74.73;;;;;;;;;;5091635;28;20231;-59
2022/12/22 11:23:52;;;;;;;288.57;79.37;;;;;;;;;;5090690;28;20639;-60
2022/12/22 11:26:25;;;;;;;284.30;87.03;;;;;;;;;;5092865;28;20249;-53
2022/12/22 11:28:59;;;;;;;288.23;92.33;;;;;;;;;;5091796;28;20663;-58
2022/12/22 11:31:48;;;;;;;271.03;83.57;;;;;;;;;;5092936;28;20226;-60
2022/12/22 11:34:47;;;;;;;290.70;86.47;;;;;;;;;;5092360;28;20218;-60
2022/12/22 11:37:42;;;;;;;391.70;145.97;;;;;;;;;;5083805;28;20238;-59
2022/12/22 11:40:51;;;;;;;428.03;160.57;;;;;;;;;;5091753;28;20287;-60
2022/12/22 11:43:44;;;;;;;264.50;76.00;;;;;;;;;;5083014;28;20222;-59
2022/12/22 11:46:30;;;;;;;271.20;84.70;;;;;;;;;;5075857;28;20320;-56
2022/12/22 11:49:02;;;;;;;284.10;93.90;;;;;;;;;;5091431;28;20222;-55
2022/12/22 11:51:42;;;;;;;255.50;83.80;;;;;;;;;;5091607;28;20253;-61
2022/12/22 11:54:33;;;;;;;255.50;83.47;;;;;;;;;;5091405;28;20223;-62
2022/12/22 11:57:13;;;;;;;237.20;69.83;;;;;;;;;;5075364;28;20242;-59
2022/12/22 11:59:55;;;;;;;238.27;70.07;;;;;;;;;;5091278;28;20222;-57
2022/12/22 12:02:43;;;;;;;223.33;66.40;;;;;;;;;;5092200;28;20214;-59
2022/12/22 12:05:37;;;;;;;239.80;67.83;;;;;;;;;;5091690;28;20215;-58
2022/12/22 12:08:11;;;;;;;237.30;65.07;;;;;;;;;;5092552;28;20231;-60
2022/12/22 12:10:42;;;;;;;218.43;64.13;;;;;;;;;;5092639;28;20226;-59
2022/12/22 12:13:09;;;;;;;239.33;65.63;;;;;;;;;;5096507;28;20234;-61
2022/12/22 12:15:45;;;;;;;217.43;64.23;;;;;;;;;;5094908;28;20234;-60
2022/12/22 12:18:40;;;;;;;237.23;67.87;;;;;;;;;;5095612;27;20697;-60
2022/12/22 12:21:53;;;;;;;219.47;61.70;;;;;;;;;;5094968;28;20230;-61
2022/12/22 12:24:24;;;;;;;200.80;57.67;;;;;;;;;;5037073;28;20227;-59
2022/12/22 12:27:06;;;;;;;209.10;60.27;;;;;;;;;;5076380;28;20546;-60
2022/12/22 12:29:40;;;;;;;190.73;56.47;;;;;;;;;;5095215;28;20557;-62
2022/12/22 12:32:22;;;;;;;197.57;57.27;;;;;;;;;;5095576;28;20679;-60
2022/12/22 12:34:56;;;;;;;201.97;57.53;;;;;;;;;;5094685;28;20538;-60
2022/12/22 12:37:35;;;;;;;195.70;56.63;;;;;;;;;;5095782;28;20234;-59
2022/12/22 12:40:05;;;;;;;200.67;58.00;;;;;;;;;;5095590;28;20271;-61
2022/12/22 12:42:35;;;;;;;209.90;59.50;;;;;;;;;;5076062;28;20227;-62
2022/12/22 12:45:19;;;;;;;199.73;59.33;;;;;;;;;;5084865;28;20317;-58
2022/12/22 12:47:46;;;;;;;211.30;66.53;;;;;;;;;;5095030;28;20665;-62
2022/12/22 12:50:33;;;;;;;217.97;68.23;;;;;;;;;;5095746;28;20219;-60
2022/12/22 12:53:07;;;;;;;194.90;55.33;;;;;;;;;;5096451;28;20246;-62
2022/12/22 12:55:37;;;;;;;182.20;55.00;;;;;;;;;;5093110;28;20242;-63
2022/12/22 12:58:09;;;;;;;191.33;55.70;;;;;;;;;;5096286;28;20595;-60
2022/12/22 13:00:36;;;;;;;188.23;54.57;;;;;;;;;;5096125;28;20218;-58
2022/12/22 13:03:27;;;;;;;192.10;56.50;;;;;;;;;;5095035;28;20291;-63
2022/12/22 13:06:45;;;;;;;201.00;55.83;;;;;;;;;;5093820;28;20662;-59
2022/12/22 13:09:17;;;;;;;232.80;68.93;;;;;;;;;;5094522;28;20222;-61
2022/12/22 13:12:38;;;;;;;218.73;65.90;;;;;;;;;;5094368;28;20226;-60
2022/12/22 13:15:25;;;;;;;219.97;61.97;;;;;;;;;;5090661;28;20284;-65
2022/12/22 13:17:52;;;;;;;221.93;58.30;;;;;;;;;;5092921;28;20559;-63
2022/12/22 13:20:24;;;;;;;222.47;59.87;;;;;;;;;;5095080;28;20317;-62
2022/12/22 13:22:53;;;;;;;203.20;54.13;;;;;;;;;;5093107;28;20223;-59
2022/12/22 13:25:21;;;;;;;237.13;57.20;;;;;;;;;;5091327;28;20223;-60
2022/12/22 13:27:49;;;;;;;208.17;56.10;;;;;;;;;;5080845;28;20664;-60
2022/12/22 13:30:19;;;;;;;214.10;53.73;;;;;;;;;;5082686;28;20227;-60
2022/12/22 13:32:49;;;;;;;202.13;54.23;;;;;;;;;;5089033;28;20215;-61
2022/12/22 13:35:26;;;;;;;227.50;60.63;;;;;;;;;;5094058;28;20223;-58
2022/12/22 13:38:00;;;;;;;219.73;52.83;;;;;;;;;;5095007;28;20284;-59
2022/12/22 13:40:41;;;;;;;210.60;52.83;;;;;;;;;;5093461;28;20318;-60
2022/12/22 13:43:14;;;;;;;209.70;49.73;;;;;;;;;;5092792;28;20233;-61
2022/12/22 13:45:43;;;;;;;202.93;49.33;;;;;;;;;;5092429;28;20214;-60
2022/12/22 13:48:29;;;;;;;193.83;47.80;;;;;;;;;;5094647;28;20238;-60
2022/12/22 13:50:59;;;;;;;206.70;47.37;;;;;;;;;;5092973;28;20238;-59
2022/12/22 13:53:34;;;;;;;202.87;46.40;;;;;;;;;;5093084;28;20573;-63
2022/12/22 13:56:27;;;;;;;203.43;45.87;;;;;;;;;;5090441;28;20230;-60
2022/12/22 13:58:58;;;;;;;190.27;48.17;;;;;;;;;;5093303;28;20237;-60
2022/12/22 14:01:25;;;;;;;207.63;47.70;;;;;;;;;;5093042;28;20260;-62
2022/12/22 14:03:58;;;;;;;205.33;54.17;;;;;;;;;;5087218;28;20660;-59
2022/12/22 14:06:28;;;;;;;202.77;49.73;;;;;;;;;;5092473;28;20241;-61
2022/12/22 14:09:23;;;;;;;193.03;48.00;;;;;;;;;;5074059;28;20242;-59
2022/12/22 14:11:58;;;;;;;188.17;49.77;;;;;;;;;;5090611;28;20227;-61
2022/12/22 14:14:28;;;;;;;185.60;48.30;;;;;;;;;;5094722;28;20217;-66
2022/12/22 14:16:57;;;;;;;196.03;48.83;;;;;;;;;;5091716;28;20320;-64
2022/12/22 14:19:36;;;;;;;172.47;47.50;;;;;;;;;;5093616;28;20710;-66
2022/12/22 14:22:10;;;;;;;171.50;48.57;;;;;;;;;;5072797;28;20219;-64
2022/12/22 14:24:44;;;;;;;193.40;48.77;;;;;;;;;;5057357;28;20223;-63
2022/12/22 14:27:36;;;;;;;178.13;48.50;;;;;;;;;;5093400;28;20317;-61
2022/12/22 14:30:07;;;;;;;168.40;48.90;;;;;;;;;;5092981;28;20283;-62
2022/12/22 14:32:39;;;;;;;163.07;47.93;;;;;;;;;;5092564;28;20232;-63
2022/12/22 14:35:22;;;;;;;172.03;49.47;;;;;;;;;;5093027;28;20671;-61
2022/12/22 14:37:52;;;;;;;174.40;47.73;;;;;;;;;;5092391;28;20257;-67
2022/12/22 14:40:38;;;;;;;166.53;48.53;;;;;;;;;;5092389;28;20711;-62
2022/12/22 14:43:21;;;;;;;153.83;45.40;;;;;;;;;;5090529;28;20229;-64
2022/12/22 14:45:50;;;;;;;146.57;45.27;;;;;;;;;;5093874;28;20206;-62
2022/12/22 14:48:26;;;;;;;149.90;45.67;;;;;;;;;;5092409;28;20700;-62
2022/12/22 14:50:54;;;;;;;200.20;63.17;;;;;;;;;;5092276;28;20206;-61
2022/12/22 14:53:24;;;;;;;155.17;46.13;;;;;;;;;;5092172;28;20309;-61
2022/12/22 14:55:52;;;;;;;177.70;60.27;;;;;;;;;;5093060;28;20268;-62
2022/12/22 14:58:30;;;;;;;157.33;51.17;;;;;;;;;;5093485;28;20256;-63
2022/12/22 15:01:23;;;;;;;145.00;48.73;;;;;;;;;;5092185;28;20234;-63
2022/12/22 15:04:14;;;;;;;145.53;46.83;;;;;;;;;;5091686;28;20226;-64
2022/12/22 15:06:44;;;;;;;141.53;46.53;;;;;;;;;;5092618;28;20233;-64
2022/12/22 15:09:14;;;;;;;151.40;50.27;;;;;;;;;;5092706;28;20218;-62
2022/12/22 15:12:06;;;;;;;158.43;50.67;;;;;;;;;;5093381;28;20218;-60
2022/12/22 15:14:34;;;;;;;143.93;46.57;;;;;;;;;;5093159;28;20223;-62
2022/12/22 15:17:10;;;;;;;172.23;61.90;;;;;;;;;;5092012;28;20235;-62
2022/12/22 15:19:37;;;;;;;215.93;100.07;;;;;;;;;;5091801;28;20292;-59
2022/12/22 15:22:08;;;;;;;307.60;165.83;;;;;;;;;;5093053;28;20292;-60
2022/12/22 15:24:35;;;;;;;278.17;136.77;;;;;;;;;;5091662;28;20242;-62
2022/12/22 15:27:02;;;;;;;557.33;329.60;;;;;;;;;;5091387;28;20562;-62
2022/12/22 15:29:29;;;;;;;620.10;359.90;;;;;;;;;;5089051;27;20229;-64
2022/12/22 15:31:57;;;;;;;548.10;324.50;;;;;;;;;;5091302;28;20217;-63
2022/12/22 15:34:30;;;;;;;527.60;310.60;;;;;;;;;;5092611;28;20223;-63
2022/12/22 15:36:57;;;;;;;371.23;212.70;;;;;;;;;;5091037;28;20246;-61
2022/12/22 15:39:24;;;;;;;305.40;154.90;;;;;;;;;;5092204;28;20233;-61
2022/12/22 15:41:53;;;;;;;457.60;279.10;;;;;;;;;;5091737;28;20218;-63
2022/12/22 15:44:21;;;;;;;468.00;235.70;;;;;;;;;;5085079;28;20609;-60
2022/12/22 15:46:57;;;;;;;259.30;74.37;;;;;;;;;;5071275;28;20235;-61
2022/12/22 15:49:26;;;;;;;251.20;131.17;;;;;;;;;;5071947;28;20288;-62
2022/12/22 15:51:56;;;;;;;288.63;154.33;;;;;;;;;;5071872;28;20300;-62
2022/12/22 15:54:25;;;;;;;461.17;259.17;;;;;;;;;;5072335;28;20233;-62
2022/12/22 15:56:53;;;;;;;305.57;77.60;;;;;;;;;;5072585;28;20280;-64
2022/12/22 15:59:26;;;;;;;390.63;143.80;;;;;;;;;;5088430;28;20277;-61
2022/12/22 16:01:57;;;;;;;217.13;61.07;;;;;;;;;;5071365;28;20280;-61
2022/12/22 16:04:28;;;;;;;585.93;297.73;;;;;;;;;;5071948;28;20664;-62
2022/12/22 16:06:57;;;;;;;853.57;413.30;;;;;;;;;;5071651;28;20292;-61
2022/12/22 16:09:31;;;;;;;181.97;59.33;;;;;;;;;;5084092;28;20276;-62
2022/12/22 16:11:58;;;;;;;156.30;52.57;;;;;;;;;;5090772;28;20233;-61
2022/12/22 16:14:25;;;;;;;651.33;321.90;;;;;;;;;;5090971;28;20222;-61
2022/12/22 16:16:53;;;;;;;501.20;254.23;;;;;;;;;;5088521;28;20226;-60
2022/12/22 16:19:20;;;;;;;333.17;162.10;;;;;;;;;;5092033;28;20218;-62
2022/12/22 16:21:51;;;;;;;155.37;52.93;;;;;;;;;;5090636;28;20226;-64
2022/12/22 16:24:31;;;;;;;153.57;51.77;;;;;;;;;;5091023;28;20622;-65
2022/12/22 16:26:59;;;;;;;165.40;87.60;;;;;;;;;;5088922;28;20736;-64
2022/12/22 16:29:26;;;;;;;251.40;143.10;;;;;;;;;;5090091;28;20754;-67
2022/12/22 16:32:12;;;;;;;178.50;56.77;;;;;;;;;;5084364;28;20219;-61
2022/12/22 16:34:44;;;;;;;182.87;60.20;;;;;;;;;;5089517;28;20313;-65
2022/12/22 16:37:11;;;;;;;193.97;90.00;;;;;;;;;;5090746;28;20699;-68
2022/12/22 16:39:38;;;;;;;152.77;53.47;;;;;;;;;;5090947;28;20595;-64
2022/12/22 16:42:13;;;;;;;120.37;58.90;;;;;;;;;;5090964;28;20223;-63
2022/12/22 16:44:58;;;;;;;201.63;62.60;;;;;;;;;;5091384;28;20223;-63
2022/12/22 16:47:27;;;;;;;183.33;82.63;;;;;;;;;;5090464;28;20227;-62
2022/12/22 16:49:54;;;;;;;170.20;52.67;;;;;;;;;;5091472;28;20221;-61
2022/12/22 16:52:36;;;;;;;137.23;48.47;;;;;;;;;;5091726;28;20222;-62
2022/12/22 16:55:30;;;;;;;125.93;50.13;;;;;;;;;;5091911;28;20219;-64
2022/12/22 16:57:57;;;;;;;104.57;43.63;;;;;;;;;;5090967;28;20769;-64
2022/12/22 17:00:27;;;;;;;144.20;51.53;;;;;;;;;;5095645;28;20249;-64
2022/12/22 17:03:15;;;;;;;204.07;97.47;;;;;;;;;;5094200;28;20237;-63
2022/12/22 17:05:48;;;;;;;167.10;63.43;;;;;;;;;;5094128;28;20246;-63
2022/12/22 17:08:24;;;;;;;162.30;55.00;;;;;;;;;;5094606;28;20249;-63
2022/12/22 17:10:53;;;;;;;134.93;52.00;;;;;;;;;;5094414;28;20764;-64
2022/12/22 17:13:21;;;;;;;100.27;48.43;;;;;;;;;;5095304;28;20245;-63
2022/12/22 17:15:48;;;;;;;123.57;62.87;;;;;;;;;;5093757;28;20288;-64
2022/12/22 17:18:16;;;;;;;138.07;49.57;;;;;;;;;;5095081;28;20230;-64
2022/12/22 17:20:45;;;;;;;116.17;48.83;;;;;;;;;;5094305;28;20234;-64
2022/12/22 17:23:32;;;;;;;111.67;44.83;;;;;;;;;;5095404;28;20222;-64
2022/12/22 17:26:02;;;;;;;118.93;49.47;;;;;;;;;;5093943;28;20626;-64
2022/12/22 17:28:29;;;;;;;132.37;55.10;;;;;;;;;;5094855;28;20261;-64
2022/12/22 17:30:56;;;;;;;120.20;66.67;;;;;;;;;;5092836;28;20257;-66
2022/12/22 17:33:24;;;;;;;240.73;119.30;;;;;;;;;;5095227;28;20222;-61
2022/12/22 17:35:52;;;;;;;179.90;66.33;;;;;;;;;;5094949;28;20228;-66
2022/12/22 17:38:21;;;;;;;131.67;58.30;;;;;;;;;;5094080;28;20644;-60
2022/12/22 17:40:48;;;;;;;118.73;47.43;;;;;;;;;;5086427;28;20257;-62
2022/12/22 17:43:17;;;;;;;126.67;47.47;;;;;;;;;;5085651;28;20555;-64
2022/12/22 17:45:45;;;;;;;150.07;54.10;;;;;;;;;;5086093;28;20229;-62
2022/12/22 17:48:13;;;;;;;136.03;49.63;;;;;;;;;;5090550;28;20222;-65
2022/12/22 17:50:42;;;;;;;783.63;349.17;;;;;;;;;;5091734;28;20300;-67
2022/12/22 17:53:13;;;;;;;603.00;255.43;;;;;;;;;;5093212;28;20215;-63
2022/12/22 17:55:40;;;;;;;386.40;137.93;;;;;;;;;;5092286;28;20226;-64
2022/12/22 17:58:28;;;;;;;131.63;56.00;;;;;;;;;;5089345;28;20238;-61
2022/12/22 18:00:55;;;;;;;111.17;47.70;;;;;;;;;;5092205;28;20226;-61
2022/12/22 18:03:22;;;;;;;112.93;47.20;;;;;;;;;;5093539;28;20215;-60
2022/12/22 18:05:50;;;;;;;393.80;153.97;;;;;;;;;;5091331;28;20214;-59
2022/12/22 18:08:18;;;;;;;487.23;204.07;;;;;;;;;;5089568;28;20217;-59
2022/12/22 18:10:46;;;;;;;502.83;226.23;;;;;;;;;;5112276;27;20720;-60
2022/12/22 18:13:23;;;;;;;108.70;46.00;;;;;;;;;;5093217;28;20687;-58